sensor_id;sensor_type;location;lat;lon;timestamp;temperature;humidity
44117;DHT22;29781;49.480;8.512;2022-10-15T00:00:04;14.70;99.90
44117;DHT22;29781;49.480;8.512;2022-10-15T00:02:30;14.50;99.90
44117;DHT22;29781;49.480;8.512;2022-10-15T00:04:56;14.80;99.90
44117;DHT22;29781;49.480;8.512;2022-10-15T00:07:23;14.80;99.90
44117;DHT22;29781;49.480;8.512;2022-10-15T00:09:49;14.80;99.90
44117;DHT22;29781;49.480;8.512;2022-10-15T00:12:15;14.80;99.90
44117;DHT22;29781;49.480;8.512;2022-10-15T00:14:41;14.80;99.90
44117;DHT22;29781;49.480;8.512;2022-10-15T00:17:06;14.80;99.90
44117;DHT22;29781;49.480;8.512;2022-10-15T00:19:32;14.80;99.90
44117;DHT22;29781;49.480;8.512;2022-10-15T00:21:58;14.80;99.90
44117;DHT22;29781;49.480;8.512;2022-10-15T00:24:24;14.80;99.90
44117;DHT22;29781;49.480;8.512;2022-10-15T00:26:49;14.80;99.90
44117;DHT22;29781;49.480;8.512;2022-10-15T00:29:15;14.80;99.90
44117;DHT22;29781;49.480;8.512;2022-10-15T00:31:40;14.90;99.90
44117;DHT22;29781;49.480;8.512;2022-10-15T00:34:06;14.90;99.90
44117;DHT22;29781;49.480;8.512;2022-10-15T00:36:34;14.90;99.90
44117;DHT22;29781;49.480;8.512;2022-10-15T00:39:02;14.90;99.90
44117;DHT22;29781;49.480;8.512;2022-10-15T00:41:31;14.90;99.90
44117;DHT22;29781;49.480;8.512;2022-10-15T00:43:59;14.90;99.90
44117;DHT22;29781;49.480;8.512;2022-10-15T00:46:34;14.90;99.90
44117;DHT22;29781;49.480;8.512;2022-10-15T00:51:46;15.00;99.90
44117;DHT22;29781;49.480;8.512;2022-10-15T00:54:14;15.00;99.90
44117;DHT22;29781;49.480;8.512;2022-10-15T00:56:41;15.00;99.90
44117;DHT22;29781;49.480;8.512;2022-10-15T00:59:08;15.00;99.90
44117;DHT22;29781;49.480;8.512;2022-10-15T01:01:36;15.10;99.90
44117;DHT22;29781;49.480;8.512;2022-10-15T01:04:02;15.10;99.90
44117;DHT22;29781;49.480;8.512;2022-10-15T01:06:29;15.10;99.90
44117;DHT22;29781;49.480;8.512;2022-10-15T01:08:55;15.10;99.90
44117;DHT22;29781;49.480;8.512;2022-10-15T01:14:19;15.10;99.90
44117;DHT22;29781;49.480;8.512;2022-10-15T01:19:27;15.10;99.90
44117;DHT22;29781;49.480;8.512;2022-10-15T01:22:15;15.10;99.90
44117;DHT22;29781;49.480;8.512;2022-10-15T01:27:27;15.10;99.90
44117;DHT22;29781;49.480;8.512;2022-10-15T01:30:14;15.10;99.90
44117;DHT22;29781;49.480;8.512;2022-10-15T01:37:51;15.20;99.90
44117;DHT22;29781;49.480;8.512;2022-10-15T01:40:45;15.20;99.90
44117;DHT22;29781;49.480;8.512;2022-10-15T01:43:16;15.20;99.90
44117;DHT22;29781;49.480;8.512;2022-10-15T01:45:47;15.20;99.90
44117;DHT22;29781;49.480;8.512;2022-10-15T01:48:15;15.20;99.90
44117;DHT22;29781;49.480;8.512;2022-10-15T01:50:45;15.20;99.90
44117;DHT22;29781;49.480;8.512;2022-10-15T01:53:15;15.20;99.90
44117;DHT22;29781;49.480;8.512;2022-10-15T01:55:44;15.20;99.90
44117;DHT22;29781;49.480;8.512;2022-10-15T01:58:11;15.20;99.90
44117;DHT22;29781;49.480;8.512;2022-10-15T02:00:40;15.20;99.90
44117;DHT22;29781;49.480;8.512;2022-10-15T02:03:07;15.20;99.90
44117;DHT22;29781;49.480;8.512;2022-10-15T02:05:59;15.20;99.90
44117;DHT22;29781;49.480;8.512;2022-10-15T02:11:30;15.20;99.90
44117;DHT22;29781;49.480;8.512;2022-10-15T02:14:15;15.20;99.90
44117;DHT22;29781;49.480;8.512;2022-10-15T02:16:48;15.20;99.90
44117;DHT22;29781;49.480;8.512;2022-10-15T02:19:30;15.30;99.90
44117;DHT22;29781;49.480;8.512;2022-10-15T02:22:17;15.30;99.90
44117;DHT22;29781;49.480;8.512;2022-10-15T02:24:50;15.30;99.90
44117;DHT22;29781;49.480;8.512;2022-10-15T02:27:19;15.30;99.90
44117;DHT22;29781;49.480;8.512;2022-10-15T02:29:45;15.30;99.90
44117;DHT22;29781;49.480;8.512;2022-10-15T02:32:14;15.30;99.90
44117;DHT22;29781;49.480;8.512;2022-10-15T02:34:41;15.30;99.90
44117;DHT22;29781;49.480;8.512;2022-10-15T02:37:08;15.30;99.90
44117;DHT22;29781;49.480;8.512;2022-10-15T02:39:34;15.30;99.90
44117;DHT22;29781;49.480;8.512;2022-10-15T02:42:00;15.30;99.90
44117;DHT22;29781;49.480;8.512;2022-10-15T02:44:26;15.30;99.90
44117;DHT22;29781;49.480;8.512;2022-10-15T02:46:52;15.30;99.90
44117;DHT22;29781;49.480;8.512;2022-10-15T02:49:18;15.30;99.90
44117;DHT22;29781;49.480;8.512;2022-10-15T02:51:44;15.30;99.90
44117;DHT22;29781;49.480;8.512;2022-10-15T02:54:09;15.40;99.90
44117;DHT22;29781;49.480;8.512;2022-10-15T02:56:35;15.30;99.90
44117;DHT22;29781;49.480;8.512;2022-10-15T02:59:04;15.40;99.90
44117;DHT22;29781;49.480;8.512;2022-10-15T03:01:30;15.40;99.90
44117;DHT22;29781;49.480;8.512;2022-10-15T03:03:56;15.40;99.90
44117;DHT22;29781;49.480;8.512;2022-10-15T03:06:22;15.40;99.90
44117;DHT22;29781;49.480;8.512;2022-10-15T03:08:48;15.40;99.90
44117;DHT22;29781;49.480;8.512;2022-10-15T03:11:14;15.40;99.90
44117;DHT22;29781;49.480;8.512;2022-10-15T03:13:40;15.40;99.90
44117;DHT22;29781;49.480;8.512;2022-10-15T03:16:07;15.40;99.90
44117;DHT22;29781;49.480;8.512;2022-10-15T03:18:34;15.40;99.90
44117;DHT22;29781;49.480;8.512;2022-10-15T03:21:00;15.40;99.90
44117;DHT22;29781;49.480;8.512;2022-10-15T03:23:28;15.40;99.90
44117;DHT22;29781;49.480;8.512;2022-10-15T03:25:53;15.40;99.90
44117;DHT22;29781;49.480;8.512;2022-10-15T03:28:20;15.40;99.90
44117;DHT22;29781;49.480;8.512;2022-10-15T03:30:47;15.40;99.90
44117;DHT22;29781;49.480;8.512;2022-10-15T03:33:13;15.40;99.90
44117;DHT22;29781;49.480;8.512;2022-10-15T03:35:39;15.40;99.90
44117;DHT22;29781;49.480;8.512;2022-10-15T03:38:06;15.40;99.90
44117;DHT22;29781;49.480;8.512;2022-10-15T03:40:33;15.50;99.90
44117;DHT22;29781;49.480;8.512;2022-10-15T03:42:59;15.40;99.90
44117;DHT22;29781;49.480;8.512;2022-10-15T03:45:25;15.50;99.90
44117;DHT22;29781;49.480;8.512;2022-10-15T03:47:51;15.50;99.90
44117;DHT22;29781;49.480;8.512;2022-10-15T03:50:16;15.50;99.90
44117;DHT22;29781;49.480;8.512;2022-10-15T03:52:42;15.50;99.90
44117;DHT22;29781;49.480;8.512;2022-10-15T03:55:09;15.50;99.90
44117;DHT22;29781;49.480;8.512;2022-10-15T03:57:36;15.50;99.90
44117;DHT22;29781;49.480;8.512;2022-10-15T04:00:03;15.50;99.90
44117;DHT22;29781;49.480;8.512;2022-10-15T04:02:30;15.50;99.90
44117;DHT22;29781;49.480;8.512;2022-10-15T04:04:56;15.50;99.90
44117;DHT22;29781;49.480;8.512;2022-10-15T04:07:21;15.50;99.90
44117;DHT22;29781;49.480;8.512;2022-10-15T04:09:47;15.50;99.90
44117;DHT22;29781;49.480;8.512;2022-10-15T04:12:13;15.60;99.90
44117;DHT22;29781;49.480;8.512;2022-10-15T04:14:39;15.50;99.90
44117;DHT22;29781;49.480;8.512;2022-10-15T04:17:05;15.50;99.90
44117;DHT22;29781;49.480;8.512;2022-10-15T04:19:30;15.60;99.90
44117;DHT22;29781;49.480;8.512;2022-10-15T04:21:56;15.60;99.90
44117;DHT22;29781;49.480;8.512;2022-10-15T04:24:22;15.60;99.90
44117;DHT22;29781;49.480;8.512;2022-10-15T04:26:48;15.60;99.90
44117;DHT22;29781;49.480;8.512;2022-10-15T04:29:13;15.60;99.90
44117;DHT22;29781;49.480;8.512;2022-10-15T04:31:39;15.60;99.90
44117;DHT22;29781;49.480;8.512;2022-10-15T04:34:06;15.60;99.90
44117;DHT22;29781;49.480;8.512;2022-10-15T04:36:31;15.60;99.90
44117;DHT22;29781;49.480;8.512;2022-10-15T04:38:58;15.60;99.90
44117;DHT22;29781;49.480;8.512;2022-10-15T04:41:23;15.60;99.90
44117;DHT22;29781;49.480;8.512;2022-10-15T04:43:49;15.60;99.90
44117;DHT22;29781;49.480;8.512;2022-10-15T04:46:14;15.60;99.90
44117;DHT22;29781;49.480;8.512;2022-10-15T04:48:40;15.60;99.90
44117;DHT22;29781;49.480;8.512;2022-10-15T04:51:11;15.60;99.90
44117;DHT22;29781;49.480;8.512;2022-10-15T04:53:37;15.60;99.90
44117;DHT22;29781;49.480;8.512;2022-10-15T04:56:06;15.60;99.90
44117;DHT22;29781;49.480;8.512;2022-10-15T04:58:33;15.60;99.90
44117;DHT22;29781;49.480;8.512;2022-10-15T05:01:07;15.60;99.90
44117;DHT22;29781;49.480;8.512;2022-10-15T05:03:33;15.60;99.90
44117;DHT22;29781;49.480;8.512;2022-10-15T05:06:06;15.60;99.90
44117;DHT22;29781;49.480;8.512;2022-10-15T05:08:33;15.60;99.90
44117;DHT22;29781;49.480;8.512;2022-10-15T05:11:13;15.60;99.90
44117;DHT22;29781;49.480;8.512;2022-10-15T05:13:38;15.60;99.90
44117;DHT22;29781;49.480;8.512;2022-10-15T05:16:13;15.70;99.90
44117;DHT22;29781;49.480;8.512;2022-10-15T05:18:40;15.60;99.90
44117;DHT22;29781;49.480;8.512;2022-10-15T05:21:06;15.70;99.90
44117;DHT22;29781;49.480;8.512;2022-10-15T05:23:33;15.70;99.90
44117;DHT22;29781;49.480;8.512;2022-10-15T05:26:00;15.70;99.90
44117;DHT22;29781;49.480;8.512;2022-10-15T05:28:26;15.70;99.90
44117;DHT22;29781;49.480;8.512;2022-10-15T05:30:52;15.70;99.90
44117;DHT22;29781;49.480;8.512;2022-10-15T05:33:17;15.70;99.90
44117;DHT22;29781;49.480;8.512;2022-10-15T05:35:43;15.70;99.90
44117;DHT22;29781;49.480;8.512;2022-10-15T05:38:08;15.70;99.90
44117;DHT22;29781;49.480;8.512;2022-10-15T05:40:34;15.70;99.90
44117;DHT22;29781;49.480;8.512;2022-10-15T05:42:59;15.70;99.90
44117;DHT22;29781;49.480;8.512;2022-10-15T05:45:25;15.70;99.90
44117;DHT22;29781;49.480;8.512;2022-10-15T05:47:54;15.70;99.90
44117;DHT22;29781;49.480;8.512;2022-10-15T05:50:21;15.70;99.90
44117;DHT22;29781;49.480;8.512;2022-10-15T05:52:47;15.70;99.90
44117;DHT22;29781;49.480;8.512;2022-10-15T05:55:12;15.70;99.90
44117;DHT22;29781;49.480;8.512;2022-10-15T06:00:11;15.70;99.90
44117;DHT22;29781;49.480;8.512;2022-10-15T06:02:36;15.70;99.90
44117;DHT22;29781;49.480;8.512;2022-10-15T06:05:02;15.70;99.90
44117;DHT22;29781;49.480;8.512;2022-10-15T06:07:30;15.70;99.90
44117;DHT22;29781;49.480;8.512;2022-10-15T06:09:56;15.70;99.90
44117;DHT22;29781;49.480;8.512;2022-10-15T06:12:22;15.70;99.90
44117;DHT22;29781;49.480;8.512;2022-10-15T06:14:47;15.70;99.90
44117;DHT22;29781;49.480;8.512;2022-10-15T06:17:13;15.70;99.90
44117;DHT22;29781;49.480;8.512;2022-10-15T06:19:38;15.70;99.90
44117;DHT22;29781;49.480;8.512;2022-10-15T06:22:04;15.70;99.90
44117;DHT22;29781;49.480;8.512;2022-10-15T06:24:30;15.70;99.90
44117;DHT22;29781;49.480;8.512;2022-10-15T06:26:57;15.80;99.90
44117;DHT22;29781;49.480;8.512;2022-10-15T06:29:23;15.70;99.90
44117;DHT22;29781;49.480;8.512;2022-10-15T06:31:49;15.80;99.90
44117;DHT22;29781;49.480;8.512;2022-10-15T06:34:14;15.80;99.90
44117;DHT22;29781;49.480;8.512;2022-10-15T06:36:40;15.80;99.90
44117;DHT22;29781;49.480;8.512;2022-10-15T06:39:06;15.80;99.90
44117;DHT22;29781;49.480;8.512;2022-10-15T06:41:32;15.80;99.90
44117;DHT22;29781;49.480;8.512;2022-10-15T06:43:57;15.80;99.90
44117;DHT22;29781;49.480;8.512;2022-10-15T06:46:23;15.80;99.90
44117;DHT22;29781;49.480;8.512;2022-10-15T06:48:48;15.80;99.90
44117;DHT22;29781;49.480;8.512;2022-10-15T06:51:16;15.70;99.90
44117;DHT22;29781;49.480;8.512;2022-10-15T06:53:42;15.80;99.90
44117;DHT22;29781;49.480;8.512;2022-10-15T06:56:08;15.70;99.90
44117;DHT22;29781;49.480;8.512;2022-10-15T06:58:34;15.70;99.90
44117;DHT22;29781;49.480;8.512;2022-10-15T07:01:04;15.70;99.90
44117;DHT22;29781;49.480;8.512;2022-10-15T07:03:30;15.80;99.90
44117;DHT22;29781;49.480;8.512;2022-10-15T07:05:56;15.80;99.90
44117;DHT22;29781;49.480;8.512;2022-10-15T07:08:25;15.80;99.90
44117;DHT22;29781;49.480;8.512;2022-10-15T07:10:51;15.80;99.90
44117;DHT22;29781;49.480;8.512;2022-10-15T07:13:16;15.80;99.90
44117;DHT22;29781;49.480;8.512;2022-10-15T07:15:42;15.80;99.90
44117;DHT22;29781;49.480;8.512;2022-10-15T07:18:09;15.80;99.90
44117;DHT22;29781;49.480;8.512;2022-10-15T07:20:34;15.80;99.90
44117;DHT22;29781;49.480;8.512;2022-10-15T07:23:01;15.80;99.90
44117;DHT22;29781;49.480;8.512;2022-10-15T07:25:27;15.80;99.90
44117;DHT22;29781;49.480;8.512;2022-10-15T07:27:53;15.80;99.90
44117;DHT22;29781;49.480;8.512;2022-10-15T07:30:20;15.80;99.90
44117;DHT22;29781;49.480;8.512;2022-10-15T07:32:46;15.80;99.90
44117;DHT22;29781;49.480;8.512;2022-10-15T07:35:12;15.80;99.90
44117;DHT22;29781;49.480;8.512;2022-10-15T07:37:39;15.80;99.90
44117;DHT22;29781;49.480;8.512;2022-10-15T07:40:05;15.80;99.90
44117;DHT22;29781;49.480;8.512;2022-10-15T07:42:30;15.80;99.90
44117;DHT22;29781;49.480;8.512;2022-10-15T07:44:56;15.80;99.90
44117;DHT22;29781;49.480;8.512;2022-10-15T07:47:22;15.80;99.90
44117;DHT22;29781;49.480;8.512;2022-10-15T07:49:47;15.80;99.90
44117;DHT22;29781;49.480;8.512;2022-10-15T07:52:13;15.70;99.90
44117;DHT22;29781;49.480;8.512;2022-10-15T07:54:39;15.80;99.90
44117;DHT22;29781;49.480;8.512;2022-10-15T07:57:04;15.80;99.90
44117;DHT22;29781;49.480;8.512;2022-10-15T07:59:32;15.80;99.90
44117;DHT22;29781;49.480;8.512;2022-10-15T08:01:57;15.80;99.90
44117;DHT22;29781;49.480;8.512;2022-10-15T08:04:23;15.80;99.90
44117;DHT22;29781;49.480;8.512;2022-10-15T08:06:49;15.80;99.90
44117;DHT22;29781;49.480;8.512;2022-10-15T08:09:15;15.80;99.90
44117;DHT22;29781;49.480;8.512;2022-10-15T08:11:40;15.80;99.90
44117;DHT22;29781;49.480;8.512;2022-10-15T08:14:06;15.80;99.90
44117;DHT22;29781;49.480;8.512;2022-10-15T08:16:31;15.80;99.90
44117;DHT22;29781;49.480;8.512;2022-10-15T08:18:57;15.80;99.90
44117;DHT22;29781;49.480;8.512;2022-10-15T08:21:24;15.80;99.90
44117;DHT22;29781;49.480;8.512;2022-10-15T08:23:49;15.90;99.90
44117;DHT22;29781;49.480;8.512;2022-10-15T08:26:16;15.90;99.90
44117;DHT22;29781;49.480;8.512;2022-10-15T08:28:42;15.90;99.90
44117;DHT22;29781;49.480;8.512;2022-10-15T08:31:08;15.90;99.90
44117;DHT22;29781;49.480;8.512;2022-10-15T08:33:35;15.90;99.90
44117;DHT22;29781;49.480;8.512;2022-10-15T08:36:00;16.00;99.90
44117;DHT22;29781;49.480;8.512;2022-10-15T08:38:26;16.00;99.90
44117;DHT22;29781;49.480;8.512;2022-10-15T08:40:54;16.00;99.90
44117;DHT22;29781;49.480;8.512;2022-10-15T08:43:36;16.10;99.90
44117;DHT22;29781;49.480;8.512;2022-10-15T08:46:07;16.10;99.90
44117;DHT22;29781;49.480;8.512;2022-10-15T08:48:39;16.10;99.90
44117;DHT22;29781;49.480;8.512;2022-10-15T08:51:13;16.10;99.90
44117;DHT22;29781;49.480;8.512;2022-10-15T08:53:46;16.10;99.90
44117;DHT22;29781;49.480;8.512;2022-10-15T08:56:20;16.10;99.90
44117;DHT22;29781;49.480;8.512;2022-10-15T09:01:45;16.10;99.90
44117;DHT22;29781;49.480;8.512;2022-10-15T09:04:32;16.10;99.90
44117;DHT22;29781;49.480;8.512;2022-10-15T09:07:12;16.10;99.90
44117;DHT22;29781;49.480;8.512;2022-10-15T09:09:50;16.10;99.90
44117;DHT22;29781;49.480;8.512;2022-10-15T09:13:15;16.20;99.90
44117;DHT22;29781;49.480;8.512;2022-10-15T09:15:22;16.20;99.90
44117;DHT22;29781;49.480;8.512;2022-10-15T09:17:51;16.20;99.90
44117;DHT22;29781;49.480;8.512;2022-10-15T09:20:38;16.20;99.90
44117;DHT22;29781;49.480;8.512;2022-10-15T09:23:12;16.20;99.90
44117;DHT22;29781;49.480;8.512;2022-10-15T09:25:42;16.20;99.90
44117;DHT22;29781;49.480;8.512;2022-10-15T09:28:13;16.20;99.90
44117;DHT22;29781;49.480;8.512;2022-10-15T09:41:06;16.20;99.90
44117;DHT22;29781;49.480;8.512;2022-10-15T09:43:41;16.20;99.90
44117;DHT22;29781;49.480;8.512;2022-10-15T09:46:10;16.20;99.90
44117;DHT22;29781;49.480;8.512;2022-10-15T09:48:40;16.10;99.90
44117;DHT22;29781;49.480;8.512;2022-10-15T09:51:23;16.10;99.90
44117;DHT22;29781;49.480;8.512;2022-10-15T09:54:10;16.10;99.90
44117;DHT22;29781;49.480;8.512;2022-10-15T09:56:44;16.10;99.90
44117;DHT22;29781;49.480;8.512;2022-10-15T09:59:16;16.10;99.90
44117;DHT22;29781;49.480;8.512;2022-10-15T10:02:02;16.20;99.90
44117;DHT22;29781;49.480;8.512;2022-10-15T10:04:30;16.20;99.90
44117;DHT22;29781;49.480;8.512;2022-10-15T10:07:01;16.20;99.90
44117;DHT22;29781;49.480;8.512;2022-10-15T10:09:35;16.30;99.90
44117;DHT22;29781;49.480;8.512;2022-10-15T10:12:05;16.30;99.90
44117;DHT22;29781;49.480;8.512;2022-10-15T10:14:34;16.40;99.90
44117;DHT22;29781;49.480;8.512;2022-10-15T10:17:04;16.40;99.90
44117;DHT22;29781;49.480;8.512;2022-10-15T10:19:30;16.50;99.90
44117;DHT22;29781;49.480;8.512;2022-10-15T10:22:06;16.50;99.90
44117;DHT22;29781;49.480;8.512;2022-10-15T10:24:37;16.50;99.90
44117;DHT22;29781;49.480;8.512;2022-10-15T10:27:02;16.60;99.90
44117;DHT22;29781;49.480;8.512;2022-10-15T10:29:33;16.50;99.90
44117;DHT22;29781;49.480;8.512;2022-10-15T10:32:27;16.60;99.90
44117;DHT22;29781;49.480;8.512;2022-10-15T10:34:54;16.60;99.90
44117;DHT22;29781;49.480;8.512;2022-10-15T10:37:20;16.60;99.90
44117;DHT22;29781;49.480;8.512;2022-10-15T10:39:54;16.70;99.90
44117;DHT22;29781;49.480;8.512;2022-10-15T10:44:52;16.90;99.90
44117;DHT22;29781;49.480;8.512;2022-10-15T10:47:20;16.90;99.90
44117;DHT22;29781;49.480;8.512;2022-10-15T10:52:28;16.90;99.90
44117;DHT22;29781;49.480;8.512;2022-10-15T10:55:02;16.90;99.90
44117;DHT22;29781;49.480;8.512;2022-10-15T10:57:56;16.90;99.90
44117;DHT22;29781;49.480;8.512;2022-10-15T11:00:24;17.00;99.90
44117;DHT22;29781;49.480;8.512;2022-10-15T11:02:55;17.10;99.90
44117;DHT22;29781;49.480;8.512;2022-10-15T11:05:29;17.10;99.90
44117;DHT22;29781;49.480;8.512;2022-10-15T11:08:26;17.10;99.90
44117;DHT22;29781;49.480;8.512;2022-10-15T11:13:53;17.10;99.90
44117;DHT22;29781;49.480;8.512;2022-10-15T11:16:33;17.10;99.90
44117;DHT22;29781;49.480;8.512;2022-10-15T11:29:36;17.00;99.90
44117;DHT22;29781;49.480;8.512;2022-10-15T11:35:23;17.10;99.90
44117;DHT22;29781;49.480;8.512;2022-10-15T11:38:08;17.10;99.90
44117;DHT22;29781;49.480;8.512;2022-10-15T11:43:51;17.20;99.90
44117;DHT22;29781;49.480;8.512;2022-10-15T11:48:58;17.30;99.90
44117;DHT22;29781;49.480;8.512;2022-10-15T11:56:46;17.30;99.90
44117;DHT22;29781;49.480;8.512;2022-10-15T12:02:16;17.30;99.90
44117;DHT22;29781;49.480;8.512;2022-10-15T12:04:47;17.40;99.90
44117;DHT22;29781;49.480;8.512;2022-10-15T12:07:22;17.40;99.90
44117;DHT22;29781;49.480;8.512;2022-10-15T12:09:55;17.40;99.90
44117;DHT22;29781;49.480;8.512;2022-10-15T12:12:41;17.40;99.90
44117;DHT22;29781;49.480;8.512;2022-10-15T12:18:26;17.50;99.90
44117;DHT22;29781;49.480;8.512;2022-10-15T12:20:50;17.60;99.90
44117;DHT22;29781;49.480;8.512;2022-10-15T12:23:38;17.60;99.90
44117;DHT22;29781;49.480;8.512;2022-10-15T12:26:31;17.60;99.90
44117;DHT22;29781;49.480;8.512;2022-10-15T12:28:59;17.50;99.90
44117;DHT22;29781;49.480;8.512;2022-10-15T12:31:25;17.40;99.90
44117;DHT22;29781;49.480;8.512;2022-10-15T12:37:14;17.40;99.90
44117;DHT22;29781;49.480;8.512;2022-10-15T12:39:41;17.40;99.90
44117;DHT22;29781;49.480;8.512;2022-10-15T12:42:40;17.50;99.90
44117;DHT22;29781;49.480;8.512;2022-10-15T12:45:21;17.50;99.90
44117;DHT22;29781;49.480;8.512;2022-10-15T12:48:12;17.50;99.90
44117;DHT22;29781;49.480;8.512;2022-10-15T12:50:41;17.50;99.90
44117;DHT22;29781;49.480;8.512;2022-10-15T12:56:12;17.40;99.90
44117;DHT22;29781;49.480;8.512;2022-10-15T12:58:46;17.40;99.90
44117;DHT22;29781;49.480;8.512;2022-10-15T13:04:04;17.40;99.90
44117;DHT22;29781;49.480;8.512;2022-10-15T13:06:33;17.30;99.90
44117;DHT22;29781;49.480;8.512;2022-10-15T13:11:36;17.30;99.90
44117;DHT22;29781;49.480;8.512;2022-10-15T13:14:41;17.30;99.90
44117;DHT22;29781;49.480;8.512;2022-10-15T13:20:39;17.30;99.90
44117;DHT22;29781;49.480;8.512;2022-10-15T13:25:39;17.20;99.90
44117;DHT22;29781;49.480;8.512;2022-10-15T13:28:33;17.20;99.90
44117;DHT22;29781;49.480;8.512;2022-10-15T13:31:04;17.10;99.90
44117;DHT22;29781;49.480;8.512;2022-10-15T13:33:30;17.10;99.90
44117;DHT22;29781;49.480;8.512;2022-10-15T13:36:05;17.10;99.90
44117;DHT22;29781;49.480;8.512;2022-10-15T13:38:31;17.10;99.90
44117;DHT22;29781;49.480;8.512;2022-10-15T13:40:57;17.20;99.90
44117;DHT22;29781;49.480;8.512;2022-10-15T13:43:25;17.20;99.90
44117;DHT22;29781;49.480;8.512;2022-10-15T13:45:55;17.30;99.90
44117;DHT22;29781;49.480;8.512;2022-10-15T13:48:24;17.20;99.90
44117;DHT22;29781;49.480;8.512;2022-10-15T13:51:02;17.20;99.90
44117;DHT22;29781;49.480;8.512;2022-10-15T13:53:34;17.20;99.90
44117;DHT22;29781;49.480;8.512;2022-10-15T13:56:03;17.30;99.90
44117;DHT22;29781;49.480;8.512;2022-10-15T13:58:33;17.30;99.90
44117;DHT22;29781;49.480;8.512;2022-10-15T14:01:07;17.30;99.90
44117;DHT22;29781;49.480;8.512;2022-10-15T14:03:35;17.30;99.90
44117;DHT22;29781;49.480;8.512;2022-10-15T14:06:31;17.30;99.90
44117;DHT22;29781;49.480;8.512;2022-10-15T14:08:59;17.30;99.90
44117;DHT22;29781;49.480;8.512;2022-10-15T14:11:26;17.30;99.90
44117;DHT22;29781;49.480;8.512;2022-10-15T14:13:56;17.30;99.90
44117;DHT22;29781;49.480;8.512;2022-10-15T14:16:34;17.20;99.90
44117;DHT22;29781;49.480;8.512;2022-10-15T14:21:34;17.20;99.90
44117;DHT22;29781;49.480;8.512;2022-10-15T14:24:12;17.20;99.90
44117;DHT22;29781;49.480;8.512;2022-10-15T14:26:39;17.20;99.90
44117;DHT22;29781;49.480;8.512;2022-10-15T14:29:06;17.20;99.90
44117;DHT22;29781;49.480;8.512;2022-10-15T14:31:39;17.20;99.90
44117;DHT22;29781;49.480;8.512;2022-10-15T14:37:45;17.30;99.90
44117;DHT22;29781;49.480;8.512;2022-10-15T14:39:47;17.30;99.90
44117;DHT22;29781;49.480;8.512;2022-10-15T14:42:30;17.20;99.90
44117;DHT22;29781;49.480;8.512;2022-10-15T14:47:38;17.30;99.90
44117;DHT22;29781;49.480;8.512;2022-10-15T14:50:05;17.20;99.90
44117;DHT22;29781;49.480;8.512;2022-10-15T14:52:32;17.20;99.90
44117;DHT22;29781;49.480;8.512;2022-10-15T14:55:06;17.20;99.90
44117;DHT22;29781;49.480;8.512;2022-10-15T14:57:38;17.20;99.90
44117;DHT22;29781;49.480;8.512;2022-10-15T15:00:27;17.20;99.90
44117;DHT22;29781;49.480;8.512;2022-10-15T15:02:55;17.20;99.90
44117;DHT22;29781;49.480;8.512;2022-10-15T15:05:27;17.20;99.90
44117;DHT22;29781;49.480;8.512;2022-10-15T15:07:54;17.20;99.90
44117;DHT22;29781;49.480;8.512;2022-10-15T15:10:26;17.20;99.90
44117;DHT22;29781;49.480;8.512;2022-10-15T15:12:54;17.20;99.90
44117;DHT22;29781;49.480;8.512;2022-10-15T15:15:22;17.20;99.90
44117;DHT22;29781;49.480;8.512;2022-10-15T15:17:48;17.20;99.90
44117;DHT22;29781;49.480;8.512;2022-10-15T15:20:16;17.20;99.90
44117;DHT22;29781;49.480;8.512;2022-10-15T15:22:45;17.20;99.90
44117;DHT22;29781;49.480;8.512;2022-10-15T15:25:20;17.10;99.90
44117;DHT22;29781;49.480;8.512;2022-10-15T15:27:46;17.10;99.90
44117;DHT22;29781;49.480;8.512;2022-10-15T15:30:24;17.10;99.90
44117;DHT22;29781;49.480;8.512;2022-10-15T15:32:50;17.10;99.90
44117;DHT22;29781;49.480;8.512;2022-10-15T15:35:23;17.10;99.90
44117;DHT22;29781;49.480;8.512;2022-10-15T15:37:50;17.10;99.90
44117;DHT22;29781;49.480;8.512;2022-10-15T15:40:16;17.00;99.90
44117;DHT22;29781;49.480;8.512;2022-10-15T15:42:43;17.00;99.90
44117;DHT22;29781;49.480;8.512;2022-10-15T15:45:24;17.00;99.90
44117;DHT22;29781;49.480;8.512;2022-10-15T15:47:49;17.00;99.90
44117;DHT22;29781;49.480;8.512;2022-10-15T15:50:16;17.00;99.90
44117;DHT22;29781;49.480;8.512;2022-10-15T15:52:42;17.00;99.90
44117;DHT22;29781;49.480;8.512;2022-10-15T15:55:08;17.00;99.90
44117;DHT22;29781;49.480;8.512;2022-10-15T15:57:34;17.00;99.90
44117;DHT22;29781;49.480;8.512;2022-10-15T16:00:00;17.00;99.90
44117;DHT22;29781;49.480;8.512;2022-10-15T16:02:27;17.00;99.90
44117;DHT22;29781;49.480;8.512;2022-10-15T16:04:53;17.00;99.90
44117;DHT22;29781;49.480;8.512;2022-10-15T16:07:18;17.00;99.90
44117;DHT22;29781;49.480;8.512;2022-10-15T16:09:45;17.00;99.90
44117;DHT22;29781;49.480;8.512;2022-10-15T16:12:12;17.00;99.90
44117;DHT22;29781;49.480;8.512;2022-10-15T16:14:38;17.00;99.90
44117;DHT22;29781;49.480;8.512;2022-10-15T16:17:05;17.00;99.90
44117;DHT22;29781;49.480;8.512;2022-10-15T16:19:31;17.00;99.90
44117;DHT22;29781;49.480;8.512;2022-10-15T16:21:57;17.00;99.90
44117;DHT22;29781;49.480;8.512;2022-10-15T16:24:23;17.00;99.90
44117;DHT22;29781;49.480;8.512;2022-10-15T16:26:49;17.00;99.90
44117;DHT22;29781;49.480;8.512;2022-10-15T16:29:15;17.00;99.90
44117;DHT22;29781;49.480;8.512;2022-10-15T16:31:41;17.00;99.90
44117;DHT22;29781;49.480;8.512;2022-10-15T16:34:07;17.00;99.90
44117;DHT22;29781;49.480;8.512;2022-10-15T16:36:35;17.00;99.90
44117;DHT22;29781;49.480;8.512;2022-10-15T16:39:02;16.90;99.90
44117;DHT22;29781;49.480;8.512;2022-10-15T16:41:27;16.90;99.90
44117;DHT22;29781;49.480;8.512;2022-10-15T16:43:53;16.90;99.90
44117;DHT22;29781;49.480;8.512;2022-10-15T16:46:20;16.90;99.90
44117;DHT22;29781;49.480;8.512;2022-10-15T16:48:54;16.90;99.90
44117;DHT22;29781;49.480;8.512;2022-10-15T16:51:21;16.90;99.90
44117;DHT22;29781;49.480;8.512;2022-10-15T16:53:48;16.90;99.90
44117;DHT22;29781;49.480;8.512;2022-10-15T16:56:19;16.90;99.90
44117;DHT22;29781;49.480;8.512;2022-10-15T16:58:46;16.90;99.90
44117;DHT22;29781;49.480;8.512;2022-10-15T17:01:17;16.90;99.90
44117;DHT22;29781;49.480;8.512;2022-10-15T17:03:44;16.80;99.90
44117;DHT22;29781;49.480;8.512;2022-10-15T17:06:12;16.90;99.90
44117;DHT22;29781;49.480;8.512;2022-10-15T17:08:47;16.80;99.90
44117;DHT22;29781;49.480;8.512;2022-10-15T17:11:25;16.90;99.90
44117;DHT22;29781;49.480;8.512;2022-10-15T17:13:52;16.80;99.90
44117;DHT22;29781;49.480;8.512;2022-10-15T17:16:29;16.80;99.90
44117;DHT22;29781;49.480;8.512;2022-10-15T17:18:56;16.80;99.90
44117;DHT22;29781;49.480;8.512;2022-10-15T17:21:26;16.80;99.90
44117;DHT22;29781;49.480;8.512;2022-10-15T17:23:54;16.90;99.90